sensor_id;sensor_type;location;lat;lon;timestamp;P1;durP1;ratioP1;P2;durP2;ratioP2
31128;SDS011;17777;48.770;8.944;2023-07-13T00:00:34;1.20;;;0.50;;
31128;SDS011;17777;48.770;8.944;2023-07-13T00:03:01;1.90;;;0.50;;
31128;SDS011;17777;48.770;8.944;2023-07-13T00:05:28;0.52;;;0.43;;
31128;SDS011;17777;48.770;8.944;2023-07-13T00:07:53;0.52;;;0.30;;
31128;SDS011;17777;48.770;8.944;2023-07-13T00:10:20;0.80;;;0.60;;
31128;SDS011;17777;48.770;8.944;2023-07-13T00:12:46;0.40;;;0.40;;
31128;SDS011;17777;48.770;8.944;2023-07-13T00:15:17;1.27;;;0.60;;
31128;SDS011;17777;48.770;8.944;2023-07-13T00:17:54;0.80;;;0.50;;
31128;SDS011;17777;48.770;8.944;2023-07-13T00:20:21;0.73;;;0.47;;
31128;SDS011;17777;48.770;8.944;2023-07-13T00:22:50;1.73;;;0.57;;
31128;SDS011;17777;48.770;8.944;2023-07-13T00:25:18;0.93;;;0.38;;
31128;SDS011;17777;48.770;8.944;2023-07-13T00:27:46;1.75;;;0.50;;
31128;SDS011;17777;48.770;8.944;2023-07-13T00:30:14;7.72;;;0.60;;
31128;SDS011;17777;48.770;8.944;2023-07-13T00:32:40;1.00;;;0.47;;
31128;SDS011;17777;48.770;8.944;2023-07-13T00:35:06;0.65;;;0.40;;
31128;SDS011;17777;48.770;8.944;2023-07-13T00:37:32;0.80;;;0.32;;
31128;SDS011;17777;48.770;8.944;2023-07-13T00:40:00;0.55;;;0.38;;
31128;SDS011;17777;48.770;8.944;2023-07-13T00:42:28;3.00;;;0.40;;
31128;SDS011;17777;48.770;8.944;2023-07-13T00:47:52;0.70;;;0.30;;
31128;SDS011;17777;48.770;8.944;2023-07-13T00:50:20;1.60;;;0.40;;
31128;SDS011;17777;48.770;8.944;2023-07-13T00:52:48;0.30;;;0.30;;
31128;SDS011;17777;48.770;8.944;2023-07-13T00:55:19;1.05;;;0.50;;
31128;SDS011;17777;48.770;8.944;2023-07-13T00:57:47;0.60;;;0.30;;
31128;SDS011;17777;48.770;8.944;2023-07-13T01:00:13;1.10;;;0.40;;
31128;SDS011;17777;48.770;8.944;2023-07-13T01:02:41;1.58;;;0.65;;
31128;SDS011;17777;48.770;8.944;2023-07-13T01:05:12;1.40;;;0.50;;
31128;SDS011;17777;48.770;8.944;2023-07-13T01:07:44;1.33;;;0.40;;
31128;SDS011;17777;48.770;8.944;2023-07-13T01:10:11;1.00;;;0.40;;
31128;SDS011;17777;48.770;8.944;2023-07-13T01:12:38;1.10;;;0.30;;
31128;SDS011;17777;48.770;8.944;2023-07-13T01:15:04;0.85;;;0.40;;
31128;SDS011;17777;48.770;8.944;2023-07-13T01:17:34;0.82;;;0.30;;
31128;SDS011;17777;48.770;8.944;2023-07-13T01:20:00;1.33;;;0.60;;
31128;SDS011;17777;48.770;8.944;2023-07-13T01:22:26;0.93;;;0.50;;
31128;SDS011;17777;48.770;8.944;2023-07-13T01:24:52;0.93;;;0.50;;
31128;SDS011;17777;48.770;8.944;2023-07-13T01:27:23;1.52;;;0.68;;
31128;SDS011;17777;48.770;8.944;2023-07-13T01:29:51;1.00;;;0.50;;
31128;SDS011;17777;48.770;8.944;2023-07-13T01:32:19;1.80;;;0.45;;
31128;SDS011;17777;48.770;8.944;2023-07-13T01:34:50;3.95;;;0.40;;
31128;SDS011;17777;48.770;8.944;2023-07-13T01:37:19;0.63;;;0.43;;
31128;SDS011;17777;48.770;8.944;2023-07-13T01:39:46;0.63;;;0.50;;
31128;SDS011;17777;48.770;8.944;2023-07-13T01:42:12;0.30;;;0.30;;
31128;SDS011;17777;48.770;8.944;2023-07-13T01:44:39;1.23;;;0.55;;
31128;SDS011;17777;48.770;8.944;2023-07-13T01:47:06;0.93;;;0.30;;
31128;SDS011;17777;48.770;8.944;2023-07-13T01:49:32;1.15;;;0.43;;
31128;SDS011;17777;48.770;8.944;2023-07-13T01:51:58;3.40;;;0.70;;
31128;SDS011;17777;48.770;8.944;2023-07-13T01:54:24;1.05;;;0.40;;
31128;SDS011;17777;48.770;8.944;2023-07-13T01:56:49;1.88;;;0.45;;
31128;SDS011;17777;48.770;8.944;2023-07-13T01:59:15;1.15;;;0.43;;
31128;SDS011;17777;48.770;8.944;2023-07-13T02:01:41;1.38;;;0.40;;
31128;SDS011;17777;48.770;8.944;2023-07-13T02:04:07;1.45;;;0.47;;
31128;SDS011;17777;48.770;8.944;2023-07-13T02:06:33;1.40;;;0.50;;
31128;SDS011;17777;48.770;8.944;2023-07-13T02:08:58;1.05;;;0.50;;
31128;SDS011;17777;48.770;8.944;2023-07-13T02:11:25;0.93;;;0.38;;
31128;SDS011;17777;48.770;8.944;2023-07-13T02:13:57;0.55;;;0.40;;
31128;SDS011;17777;48.770;8.944;2023-07-13T02:16:27;0.90;;;0.40;;
31128;SDS011;17777;48.770;8.944;2023-07-13T02:18:54;2.65;;;0.50;;
31128;SDS011;17777;48.770;8.944;2023-07-13T02:21:21;0.80;;;0.47;;
31128;SDS011;17777;48.770;8.944;2023-07-13T02:23:50;0.63;;;0.38;;
31128;SDS011;17777;48.770;8.944;2023-07-13T02:26:17;0.80;;;0.43;;
31128;SDS011;17777;48.770;8.944;2023-07-13T02:28:43;0.85;;;0.47;;
31128;SDS011;17777;48.770;8.944;2023-07-13T02:31:10;1.40;;;0.60;;
31128;SDS011;17777;48.770;8.944;2023-07-13T02:33:39;0.82;;;0.50;;
31128;SDS011;17777;48.770;8.944;2023-07-13T02:36:05;1.45;;;0.52;;
31128;SDS011;17777;48.770;8.944;2023-07-13T02:38:32;1.05;;;0.55;;
31128;SDS011;17777;48.770;8.944;2023-07-13T02:41:01;0.65;;;0.50;;
31128;SDS011;17777;48.770;8.944;2023-07-13T02:43:31;2.67;;;0.70;;
31128;SDS011;17777;48.770;8.944;2023-07-13T02:45:58;2.75;;;0.70;;
31128;SDS011;17777;48.770;8.944;2023-07-13T02:48:34;0.85;;;0.57;;
31128;SDS011;17777;48.770;8.944;2023-07-13T02:51:03;0.73;;;0.43;;
31128;SDS011;17777;48.770;8.944;2023-07-13T02:53:29;0.82;;;0.50;;
31128;SDS011;17777;48.770;8.944;2023-07-13T02:55:55;1.58;;;0.65;;
31128;SDS011;17777;48.770;8.944;2023-07-13T02:58:21;0.52;;;0.40;;
31128;SDS011;17777;48.770;8.944;2023-07-13T03:00:47;3.85;;;0.68;;
31128;SDS011;17777;48.770;8.944;2023-07-13T03:03:16;0.65;;;0.50;;
31128;SDS011;17777;48.770;8.944;2023-07-13T03:05:43;0.77;;;0.40;;
31128;SDS011;17777;48.770;8.944;2023-07-13T03:08:15;1.03;;;0.70;;
31128;SDS011;17777;48.770;8.944;2023-07-13T03:10:44;1.23;;;0.52;;
31128;SDS011;17777;48.770;8.944;2023-07-13T03:13:10;1.17;;;0.50;;
31128;SDS011;17777;48.770;8.944;2023-07-13T03:15:37;1.10;;;0.60;;
31128;SDS011;17777;48.770;8.944;2023-07-13T03:18:03;3.45;;;0.45;;
31128;SDS011;17777;48.770;8.944;2023-07-13T03:20:31;0.75;;;0.32;;
31128;SDS011;17777;48.770;8.944;2023-07-13T03:23:00;0.60;;;0.50;;
31128;SDS011;17777;48.770;8.944;2023-07-13T03:25:27;1.25;;;0.47;;
31128;SDS011;17777;48.770;8.944;2023-07-13T03:27:53;4.53;;;0.40;;
31128;SDS011;17777;48.770;8.944;2023-07-13T03:30:19;3.33;;;0.50;;
31128;SDS011;17777;48.770;8.944;2023-07-13T03:32:46;1.98;;;0.40;;
31128;SDS011;17777;48.770;8.944;2023-07-13T03:35:12;1.73;;;0.50;;
31128;SDS011;17777;48.770;8.944;2023-07-13T03:37:37;3.50;;;0.65;;
31128;SDS011;17777;48.770;8.944;2023-07-13T03:40:09;2.20;;;0.60;;
31128;SDS011;17777;48.770;8.944;2023-07-13T03:42:36;0.90;;;0.50;;
31128;SDS011;17777;48.770;8.944;2023-07-13T03:45:02;1.25;;;0.60;;
31128;SDS011;17777;48.770;8.944;2023-07-13T03:47:31;1.10;;;0.75;;
31128;SDS011;17777;48.770;8.944;2023-07-13T03:49:56;2.55;;;1.00;;
31128;SDS011;17777;48.770;8.944;2023-07-13T03:52:22;0.50;;;0.40;;
31128;SDS011;17777;48.770;8.944;2023-07-13T03:54:48;1.05;;;0.40;;
31128;SDS011;17777;48.770;8.944;2023-07-13T03:57:15;2.78;;;0.57;;
31128;SDS011;17777;48.770;8.944;2023-07-13T03:59:41;2.15;;;0.63;;
31128;SDS011;17777;48.770;8.944;2023-07-13T04:02:07;1.13;;;0.60;;
31128;SDS011;17777;48.770;8.944;2023-07-13T04:04:33;2.50;;;0.45;;
31128;SDS011;17777;48.770;8.944;2023-07-13T04:06:59;1.38;;;0.45;;
31128;SDS011;17777;48.770;8.944;2023-07-13T04:09:25;0.80;;;0.77;;
31128;SDS011;17777;48.770;8.944;2023-07-13T04:11:51;13.35;;;1.02;;
31128;SDS011;17777;48.770;8.944;2023-07-13T04:14:17;1.85;;;0.85;;
31128;SDS011;17777;48.770;8.944;2023-07-13T04:16:42;2.30;;;0.80;;
31128;SDS011;17777;48.770;8.944;2023-07-13T04:19:09;1.08;;;0.60;;
31128;SDS011;17777;48.770;8.944;2023-07-13T04:21:35;5.70;;;0.90;;
31128;SDS011;17777;48.770;8.944;2023-07-13T04:24:01;2.92;;;0.63;;
31128;SDS011;17777;48.770;8.944;2023-07-13T04:26:28;1.75;;;0.60;;
31128;SDS011;17777;48.770;8.944;2023-07-13T04:28:54;2.63;;;0.82;;
31128;SDS011;17777;48.770;8.944;2023-07-13T04:31:21;2.60;;;0.50;;
31128;SDS011;17777;48.770;8.944;2023-07-13T04:33:47;1.00;;;0.63;;
31128;SDS011;17777;48.770;8.944;2023-07-13T04:36:15;1.98;;;0.70;;
31128;SDS011;17777;48.770;8.944;2023-07-13T04:38:41;1.40;;;0.60;;
31128;SDS011;17777;48.770;8.944;2023-07-13T04:41:08;0.70;;;0.68;;
31128;SDS011;17777;48.770;8.944;2023-07-13T04:43:34;0.68;;;0.52;;
31128;SDS011;17777;48.770;8.944;2023-07-13T04:46:07;0.95;;;0.50;;
31128;SDS011;17777;48.770;8.944;2023-07-13T04:48:36;0.88;;;0.43;;
31128;SDS011;17777;48.770;8.944;2023-07-13T04:51:02;1.60;;;0.63;;
31128;SDS011;17777;48.770;8.944;2023-07-13T04:53:28;2.00;;;0.60;;
31128;SDS011;17777;48.770;8.944;2023-07-13T04:55:57;2.03;;;0.63;;
31128;SDS011;17777;48.770;8.944;2023-07-13T04:58:23;0.90;;;0.68;;
31128;SDS011;17777;48.770;8.944;2023-07-13T05:00:50;1.35;;;0.70;;
31128;SDS011;17777;48.770;8.944;2023-07-13T05:03:15;1.70;;;0.73;;
31128;SDS011;17777;48.770;8.944;2023-07-13T05:05:41;6.28;;;0.80;;
31128;SDS011;17777;48.770;8.944;2023-07-13T05:08:07;1.35;;;0.57;;
31128;SDS011;17777;48.770;8.944;2023-07-13T05:10:33;1.27;;;0.60;;
31128;SDS011;17777;48.770;8.944;2023-07-13T05:13:00;0.82;;;0.47;;
31128;SDS011;17777;48.770;8.944;2023-07-13T05:15:26;0.95;;;0.50;;
31128;SDS011;17777;48.770;8.944;2023-07-13T05:17:52;0.82;;;0.52;;
31128;SDS011;17777;48.770;8.944;2023-07-13T05:20:18;1.77;;;0.70;;
31128;SDS011;17777;48.770;8.944;2023-07-13T05:22:44;1.08;;;0.55;;
31128;SDS011;17777;48.770;8.944;2023-07-13T05:25:12;1.42;;;0.70;;
31128;SDS011;17777;48.770;8.944;2023-07-13T05:27:38;1.00;;;0.60;;
31128;SDS011;17777;48.770;8.944;2023-07-13T05:30:04;4.43;;;0.75;;
31128;SDS011;17777;48.770;8.944;2023-07-13T05:32:32;2.42;;;0.70;;
31128;SDS011;17777;48.770;8.944;2023-07-13T05:34:58;1.02;;;0.68;;
31128;SDS011;17777;48.770;8.944;2023-07-13T05:37:24;0.88;;;0.60;;
31128;SDS011;17777;48.770;8.944;2023-07-13T05:39:50;2.05;;;0.95;;
31128;SDS011;17777;48.770;8.944;2023-07-13T05:42:15;1.38;;;0.80;;
31128;SDS011;17777;48.770;8.944;2023-07-13T05:44:41;1.90;;;0.75;;
31128;SDS011;17777;48.770;8.944;2023-07-13T05:47:07;3.92;;;0.63;;
31128;SDS011;17777;48.770;8.944;2023-07-13T05:49:33;2.17;;;0.70;;
31128;SDS011;17777;48.770;8.944;2023-07-13T05:51:58;1.23;;;0.60;;
31128;SDS011;17777;48.770;8.944;2023-07-13T05:54:24;4.32;;;0.80;;
31128;SDS011;17777;48.770;8.944;2023-07-13T05:56:50;1.40;;;0.77;;
31128;SDS011;17777;48.770;8.944;2023-07-13T05:59:17;2.13;;;0.80;;
31128;SDS011;17777;48.770;8.944;2023-07-13T06:01:43;2.97;;;0.90;;
31128;SDS011;17777;48.770;8.944;2023-07-13T06:04:09;1.92;;;0.70;;
31128;SDS011;17777;48.770;8.944;2023-07-13T06:06:34;6.22;;;1.38;;
31128;SDS011;17777;48.770;8.944;2023-07-13T06:09:00;4.03;;;1.08;;
31128;SDS011;17777;48.770;8.944;2023-07-13T06:11:26;2.65;;;0.93;;
31128;SDS011;17777;48.770;8.944;2023-07-13T06:13:54;8.10;;;1.35;;
31128;SDS011;17777;48.770;8.944;2023-07-13T06:16:21;11.20;;;1.30;;
31128;SDS011;17777;48.770;8.944;2023-07-13T06:18:47;4.18;;;1.38;;
31128;SDS011;17777;48.770;8.944;2023-07-13T06:21:14;11.27;;;1.33;;
31128;SDS011;17777;48.770;8.944;2023-07-13T06:23:43;15.57;;;1.88;;
31128;SDS011;17777;48.770;8.944;2023-07-13T06:26:12;6.15;;;1.08;;
31128;SDS011;17777;48.770;8.944;2023-07-13T06:28:38;6.60;;;1.25;;
31128;SDS011;17777;48.770;8.944;2023-07-13T06:31:07;3.60;;;0.70;;
31128;SDS011;17777;48.770;8.944;2023-07-13T06:33:35;2.55;;;0.80;;
31128;SDS011;17777;48.770;8.944;2023-07-13T06:36:02;2.00;;;0.60;;
31128;SDS011;17777;48.770;8.944;2023-07-13T06:38:30;4.53;;;0.60;;
31128;SDS011;17777;48.770;8.944;2023-07-13T06:40:56;1.23;;;0.57;;
31128;SDS011;17777;48.770;8.944;2023-07-13T06:43:22;1.42;;;0.60;;
31128;SDS011;17777;48.770;8.944;2023-07-13T06:45:50;3.83;;;0.70;;
31128;SDS011;17777;48.770;8.944;2023-07-13T06:48:16;2.10;;;0.70;;
31128;SDS011;17777;48.770;8.944;2023-07-13T06:50:44;0.98;;;0.50;;
31128;SDS011;17777;48.770;8.944;2023-07-13T06:53:11;1.88;;;0.60;;
31128;SDS011;17777;48.770;8.944;2023-07-13T06:55:38;0.90;;;0.70;;
31128;SDS011;17777;48.770;8.944;2023-07-13T06:58:04;1.13;;;0.50;;
31128;SDS011;17777;48.770;8.944;2023-07-13T07:00:31;1.75;;;0.50;;
31128;SDS011;17777;48.770;8.944;2023-07-13T07:02:57;0.82;;;0.43;;
31128;SDS011;17777;48.770;8.944;2023-07-13T07:05:22;0.98;;;0.52;;
31128;SDS011;17777;48.770;8.944;2023-07-13T07:07:52;0.77;;;0.45;;
31128;SDS011;17777;48.770;8.944;2023-07-13T07:10:20;2.05;;;0.50;;
31128;SDS011;17777;48.770;8.944;2023-07-13T07:12:46;3.35;;;0.73;;
31128;SDS011;17777;48.770;8.944;2023-07-13T07:15:12;0.93;;;0.47;;
31128;SDS011;17777;48.770;8.944;2023-07-13T07:17:38;2.65;;;0.50;;
31128;SDS011;17777;48.770;8.944;2023-07-13T07:20:05;0.75;;;0.40;;
31128;SDS011;17777;48.770;8.944;2023-07-13T07:22:32;1.92;;;0.50;;
31128;SDS011;17777;48.770;8.944;2023-07-13T07:24:58;1.48;;;0.50;;
31128;SDS011;17777;48.770;8.944;2023-07-13T07:27:25;0.70;;;0.50;;
31128;SDS011;17777;48.770;8.944;2023-07-13T07:29:51;0.82;;;0.47;;
31128;SDS011;17777;48.770;8.944;2023-07-13T07:32:17;2.42;;;0.63;;
31128;SDS011;17777;48.770;8.944;2023-07-13T07:34:43;0.95;;;0.50;;
31128;SDS011;17777;48.770;8.944;2023-07-13T07:37:10;3.20;;;0.50;;
31128;SDS011;17777;48.770;8.944;2023-07-13T07:39:38;1.65;;;0.43;;
31128;SDS011;17777;48.770;8.944;2023-07-13T07:42:04;0.55;;;0.38;;
31128;SDS011;17777;48.770;8.944;2023-07-13T07:44:31;0.52;;;0.28;;
31128;SDS011;17777;48.770;8.944;2023-07-13T07:46:57;1.90;;;0.50;;
31128;SDS011;17777;48.770;8.944;2023-07-13T07:49:23;3.63;;;0.57;;
31128;SDS011;17777;48.770;8.944;2023-07-13T07:51:49;2.70;;;0.50;;
31128;SDS011;17777;48.770;8.944;2023-07-13T07:54:16;2.65;;;0.30;;
31128;SDS011;17777;48.770;8.944;2023-07-13T07:56:42;1.63;;;0.43;;
31128;SDS011;17777;48.770;8.944;2023-07-13T07:59:08;0.93;;;0.47;;
31128;SDS011;17777;48.770;8.944;2023-07-13T08:01:33;0.77;;;0.40;;
31128;SDS011;17777;48.770;8.944;2023-07-13T08:04:00;1.85;;;0.43;;
31128;SDS011;17777;48.770;8.944;2023-07-13T08:06:26;0.68;;;0.30;;
31128;SDS011;17777;48.770;8.944;2023-07-13T08:08:52;3.03;;;0.93;;
31128;SDS011;17777;48.770;8.944;2023-07-13T08:11:18;0.30;;;0.30;;
31128;SDS011;17777;48.770;8.944;2023-07-13T08:13:46;1.90;;;0.50;;
31128;SDS011;17777;48.770;8.944;2023-07-13T08:16:11;0.88;;;0.50;;
31128;SDS011;17777;48.770;8.944;2023-07-13T08:18:37;2.70;;;0.47;;
31128;SDS011;17777;48.770;8.944;2023-07-13T08:21:04;1.17;;;0.50;;
31128;SDS011;17777;48.770;8.944;2023-07-13T08:23:31;1.42;;;0.60;;
31128;SDS011;17777;48.770;8.944;2023-07-13T08:25:57;1.40;;;0.40;;
31128;SDS011;17777;48.770;8.944;2023-07-13T08:28:24;0.75;;;0.30;;
31128;SDS011;17777;48.770;8.944;2023-07-13T08:30:50;1.02;;;0.52;;
31128;SDS011;17777;48.770;8.944;2023-07-13T08:33:17;0.70;;;0.50;;
31128;SDS011;17777;48.770;8.944;2023-07-13T08:35:48;0.43;;;0.30;;
31128;SDS011;17777;48.770;8.944;2023-07-13T08:38:15;1.02;;;0.50;;
31128;SDS011;17777;48.770;8.944;2023-07-13T08:40:42;0.40;;;0.30;;
31128;SDS011;17777;48.770;8.944;2023-07-13T08:43:13;0.85;;;0.35;;
31128;SDS011;17777;48.770;8.944;2023-07-13T08:45:46;0.60;;;0.30;;
31128;SDS011;17777;48.770;8.944;2023-07-13T08:48:24;1.95;;;0.50;;
31128;SDS011;17777;48.770;8.944;2023-07-13T08:50:57;1.17;;;0.40;;
31128;SDS011;17777;48.770;8.944;2023-07-13T08:53:32;0.93;;;0.68;;
31128;SDS011;17777;48.770;8.944;2023-07-13T08:56:09;1.02;;;0.38;;
31128;SDS011;17777;48.770;8.944;2023-07-13T08:58:44;0.60;;;0.20;;
31128;SDS011;17777;48.770;8.944;2023-07-13T09:04:29;1.23;;;0.30;;
31128;SDS011;17777;48.770;8.944;2023-07-13T09:07:15;0.63;;;0.35;;
31128;SDS011;17777;48.770;8.944;2023-07-13T09:10:19;1.77;;;0.43;;
31128;SDS011;17777;48.770;8.944;2023-07-13T09:15:48;0.40;;;0.20;;
31128;SDS011;17777;48.770;8.944;2023-07-13T09:18:29;0.70;;;0.50;;
31128;SDS011;17777;48.770;8.944;2023-07-13T09:21:11;0.65;;;0.35;;
31128;SDS011;17777;48.770;8.944;2023-07-13T09:23:44;0.30;;;0.28;;
31128;SDS011;17777;48.770;8.944;2023-07-13T09:28:46;0.82;;;0.35;;
31128;SDS011;17777;48.770;8.944;2023-07-13T09:31:28;1.27;;;0.38;;
31128;SDS011;17777;48.770;8.944;2023-07-13T09:34:02;1.33;;;0.38;;
31128;SDS011;17777;48.770;8.944;2023-07-13T09:36:32;1.05;;;0.40;;
31128;SDS011;17777;48.770;8.944;2023-07-13T09:44:54;1.00;;;0.40;;
31128;SDS011;17777;48.770;8.944;2023-07-13T09:47:24;1.13;;;0.50;;
31128;SDS011;17777;48.770;8.944;2023-07-13T09:50:00;0.85;;;0.40;;
31128;SDS011;17777;48.770;8.944;2023-07-13T09:52:42;1.48;;;0.45;;
31128;SDS011;17777;48.770;8.944;2023-07-13T09:55:29;1.63;;;0.50;;
31128;SDS011;17777;48.770;8.944;2023-07-13T09:58:04;0.70;;;0.43;;
31128;SDS011;17777;48.770;8.944;2023-07-13T10:00:37;0.47;;;0.22;;
31128;SDS011;17777;48.770;8.944;2023-07-13T10:03:27;1.27;;;0.50;;
31128;SDS011;17777;48.770;8.944;2023-07-13T10:05:55;0.98;;;0.52;;
31128;SDS011;17777;48.770;8.944;2023-07-13T10:08:51;0.60;;;0.30;;
31128;SDS011;17777;48.770;8.944;2023-07-13T10:11:20;0.50;;;0.45;;
31128;SDS011;17777;48.770;8.944;2023-07-13T10:16:34;0.50;;;0.40;;
31128;SDS011;17777;48.770;8.944;2023-07-13T10:19:10;0.77;;;0.45;;
31128;SDS011;17777;48.770;8.944;2023-07-13T10:24:22;0.52;;;0.30;;
31128;SDS011;17777;48.770;8.944;2023-07-13T10:29:58;1.77;;;0.45;;
31128;SDS011;17777;48.770;8.944;2023-07-13T10:32:27;0.55;;;0.30;;
31128;SDS011;17777;48.770;8.944;2023-07-13T10:34:53;1.70;;;0.60;;
31128;SDS011;17777;48.770;8.944;2023-07-13T10:37:24;1.38;;;0.40;;
31128;SDS011;17777;48.770;8.944;2023-07-13T10:39:55;0.43;;;0.28;;
31128;SDS011;17777;48.770;8.944;2023-07-13T10:42:39;0.57;;;0.38;;
31128;SDS011;17777;48.770;8.944;2023-07-13T10:45:26;0.60;;;0.30;;
31128;SDS011;17777;48.770;8.944;2023-07-13T10:47:56;0.88;;;0.35;;
31128;SDS011;17777;48.770;8.944;2023-07-13T10:50:23;0.98;;;0.40;;
31128;SDS011;17777;48.770;8.944;2023-07-13T10:52:53;0.63;;;0.40;;
31128;SDS011;17777;48.770;8.944;2023-07-13T10:58:11;1.02;;;0.30;;
31128;SDS011;17777;48.770;8.944;2023-07-13T11:00:47;1.40;;;0.60;;
31128;SDS011;17777;48.770;8.944;2023-07-13T11:03:46;1.05;;;0.43;;
31128;SDS011;17777;48.770;8.944;2023-07-13T11:14:04;1.10;;;0.50;;
31128;SDS011;17777;48.770;8.944;2023-07-13T11:22:43;1.55;;;0.60;;
31128;SDS011;17777;48.770;8.944;2023-07-13T11:33:22;0.63;;;0.45;;
31128;SDS011;17777;48.770;8.944;2023-07-13T11:36:05;0.30;;;0.30;;
31128;SDS011;17777;48.770;8.944;2023-07-13T11:38:42;0.50;;;0.30;;
31128;SDS011;17777;48.770;8.944;2023-07-13T11:41:17;2.70;;;0.65;;
31128;SDS011;17777;48.770;8.944;2023-07-13T11:43:55;0.98;;;0.43;;
31128;SDS011;17777;48.770;8.944;2023-07-13T11:46:30;1.98;;;0.50;;
31128;SDS011;17777;48.770;8.944;2023-07-13T11:48:56;0.80;;;0.52;;
31128;SDS011;17777;48.770;8.944;2023-07-13T11:51:26;0.82;;;0.60;;
31128;SDS011;17777;48.770;8.944;2023-07-13T11:53:57;0.82;;;0.45;;
31128;SDS011;17777;48.770;8.944;2023-07-13T11:56:29;1.27;;;0.30;;
31128;SDS011;17777;48.770;8.944;2023-07-13T11:58:57;0.70;;;0.45;;
31128;SDS011;17777;48.770;8.944;2023-07-13T12:01:30;1.67;;;0.43;;
31128;SDS011;17777;48.770;8.944;2023-07-13T12:04:01;1.48;;;0.40;;
31128;SDS011;17777;48.770;8.944;2023-07-13T12:06:32;0.95;;;0.50;;
31128;SDS011;17777;48.770;8.944;2023-07-13T12:09:12;0.98;;;0.60;;
31128;SDS011;17777;48.770;8.944;2023-07-13T12:11:43;1.52;;;0.55;;
31128;SDS011;17777;48.770;8.944;2023-07-13T12:14:13;2.35;;;0.63;;
31128;SDS011;17777;48.770;8.944;2023-07-13T12:16:45;3.47;;;0.47;;
31128;SDS011;17777;48.770;8.944;2023-07-13T12:19:22;0.63;;;0.50;;
31128;SDS011;17777;48.770;8.944;2023-07-13T12:21:52;1.10;;;0.57;;
31128;SDS011;17777;48.770;8.944;2023-07-13T12:24:22;1.25;;;0.70;;
31128;SDS011;17777;48.770;8.944;2023-07-13T12:26:52;2.83;;;0.60;;
31128;SDS011;17777;48.770;8.944;2023-07-13T12:29:27;0.88;;;0.50;;
31128;SDS011;17777;48.770;8.944;2023-07-13T12:31:53;0.95;;;0.60;;
31128;SDS011;17777;48.770;8.944;2023-07-13T12:34:21;0.50;;;0.40;;
31128;SDS011;17777;48.770;8.944;2023-07-13T12:39:25;5.35;;;1.02;;
31128;SDS011;17777;48.770;8.944;2023-07-13T12:45:41;0.77;;;0.50;;
31128;SDS011;17777;48.770;8.944;2023-07-13T12:47:55;1.35;;;0.43;;
31128;SDS011;17777;48.770;8.944;2023-07-13T12:50:42;0.57;;;0.50;;
31128;SDS011;17777;48.770;8.944;2023-07-13T12:53:16;1.80;;;0.57;;
31128;SDS011;17777;48.770;8.944;2023-07-13T12:55:47;0.80;;;0.40;;
31128;SDS011;17777;48.770;8.944;2023-07-13T12:58:17;1.08;;;0.40;;
31128;SDS011;17777;48.770;8.944;2023-07-13T13:00:53;0.73;;;0.30;;
31128;SDS011;17777;48.770;8.944;2023-07-13T13:03:24;0.40;;;0.38;;
31128;SDS011;17777;48.770;8.944;2023-07-13T13:08:54;1.08;;;0.40;;
31128;SDS011;17777;48.770;8.944;2023-07-13T13:11:23;1.75;;;0.65;;
31128;SDS011;17777;48.770;8.944;2023-07-13T13:13:52;1.13;;;0.60;;
31128;SDS011;17777;48.770;8.944;2023-07-13T13:16:34;2.95;;;0.55;;
31128;SDS011;17777;48.770;8.944;2023-07-13T13:19:18;1.05;;;0.40;;
31128;SDS011;17777;48.770;8.944;2023-07-13T13:21:50;1.40;;;0.65;;
31128;SDS011;17777;48.770;8.944;2023-07-13T13:24:20;1.13;;;0.38;;
31128;SDS011;17777;48.770;8.944;2023-07-13T13:26:48;2.13;;;0.50;;
31128;SDS011;17777;48.770;8.944;2023-07-13T13:29:17;0.90;;;0.47;;
31128;SDS011;17777;48.770;8.944;2023-07-13T13:31:46;0.50;;;0.32;;
31128;SDS011;17777;48.770;8.944;2023-07-13T13:34:16;1.30;;;0.55;;
31128;SDS011;17777;48.770;8.944;2023-07-13T13:36:43;0.60;;;0.30;;
31128;SDS011;17777;48.770;8.944;2023-07-13T13:39:24;0.47;;;0.30;;
31128;SDS011;17777;48.770;8.944;2023-07-13T13:42:01;0.95;;;0.38;;
31128;SDS011;17777;48.770;8.944;2023-07-13T13:44:28;0.82;;;0.40;;
31128;SDS011;17777;48.770;8.944;2023-07-13T13:46:54;0.52;;;0.30;;
31128;SDS011;17777;48.770;8.944;2023-07-13T13:49:21;1.88;;;0.45;;
31128;SDS011;17777;48.770;8.944;2023-07-13T13:51:51;1.10;;;0.52;;
31128;SDS011;17777;48.770;8.944;2023-07-13T13:54:18;0.68;;;0.40;;
31128;SDS011;17777;48.770;8.944;2023-07-13T13:56:48;0.60;;;0.40;;
31128;SDS011;17777;48.770;8.944;2023-07-13T13:59:16;0.73;;;0.40;;
31128;SDS011;17777;48.770;8.944;2023-07-13T14:01:43;1.17;;;0.55;;
31128;SDS011;17777;48.770;8.944;2023-07-13T14:04:13;2.97;;;0.57;;
31128;SDS011;17777;48.770;8.944;2023-07-13T14:06:43;1.65;;;0.40;;
31128;SDS011;17777;48.770;8.944;2023-07-13T14:09:11;0.68;;;0.40;;
31128;SDS011;17777;48.770;8.944;2023-07-13T14:11:44;0.47;;;0.28;;
31128;SDS011;17777;48.770;8.944;2023-07-13T14:14:19;1.08;;;0.40;;
31128;SDS011;17777;48.770;8.944;2023-07-13T14:16:48;2.22;;;0.50;;
31128;SDS011;17777;48.770;8.944;2023-07-13T14:19:18;1.40;;;0.50;;
31128;SDS011;17777;48.770;8.944;2023-07-13T14:21:45;2.67;;;0.57;;
31128;SDS011;17777;48.770;8.944;2023-07-13T14:24:12;3.22;;;0.40;;
31128;SDS011;17777;48.770;8.944;2023-07-13T14:26:39;1.23;;;0.55;;
31128;SDS011;17777;48.770;8.944;2023-07-13T14:29:14;0.60;;;0.50;;
31128;SDS011;17777;48.770;8.944;2023-07-13T14:31:42;0.40;;;0.30;;
31128;SDS011;17777;48.770;8.944;2023-07-13T14:34:10;2.03;;;0.40;;
31128;SDS011;17777;48.770;8.944;2023-07-13T14:36:39;0.63;;;0.32;;
31128;SDS011;17777;48.770;8.944;2023-07-13T14:39:20;0.45;;;0.28;;
31128;SDS011;17777;48.770;8.944;2023-07-13T14:41:52;0.38;;;0.30;;
31128;SDS011;17777;48.770;8.944;2023-07-13T14:44:21;1.00;;;0.50;;
31128;SDS011;17777;48.770;8.944;2023-07-13T14:46:51;2.58;;;0.50;;
31128;SDS011;17777;48.770;8.944;2023-07-13T14:51:50;3.30;;;0.47;;
31128;SDS011;17777;48.770;8.944;2023-07-13T14:54:16;2.47;;;0.60;;
31128;SDS011;17777;48.770;8.944;2023-07-13T14:56:42;0.77;;;0.52;;
31128;SDS011;17777;48.770;8.944;2023-07-13T14:59:08;0.93;;;0.40;;
31128;SDS011;17777;48.770;8.944;2023-07-13T15:01:34;0.75;;;0.40;;
31128;SDS011;17777;48.770;8.944;2023-07-13T15:04:02;0.90;;;0.50;;
31128;SDS011;17777;48.770;8.944;2023-07-13T15:06:29;0.93;;;0.40;;
31128;SDS011;17777;48.770;8.944;2023-07-13T15:08:56;2.00;;;0.52;;
31128;SDS011;17777;48.770;8.944;2023-07-13T15:11:22;0.80;;;0.38;;
31128;SDS011;17777;48.770;8.944;2023-07-13T15:13:48;0.77;;;0.40;;
31128;SDS011;17777;48.770;8.944;2023-07-13T15:16:21;0.68;;;0.47;;
31128;SDS011;17777;48.770;8.944;2023-07-13T15:21:20;1.15;;;0.50;;
31128;SDS011;17777;48.770;8.944;2023-07-13T15:23:48;0.93;;;0.38;;
31128;SDS011;17777;48.770;8.944;2023-07-13T15:26:16;1.02;;;0.50;;
31128;SDS011;17777;48.770;8.944;2023-07-13T15:28:44;0.47;;;0.40;;
31128;SDS011;17777;48.770;8.944;2023-07-13T15:31:24;0.63;;;0.40;;
31128;SDS011;17777;48.770;8.944;2023-07-13T15:33:55;0.60;;;0.43;;
31128;SDS011;17777;48.770;8.944;2023-07-13T15:36:23;0.85;;;0.40;;
31128;SDS011;17777;48.770;8.944;2023-07-13T15:38:53;0.73;;;0.38;;
31128;SDS011;17777;48.770;8.944;2023-07-13T15:41:27;0.50;;;0.30;;
31128;SDS011;17777;48.770;8.944;2023-07-13T15:43:55;1.05;;;0.50;;
31128;SDS011;17777;48.770;8.944;2023-07-13T15:46:26;1.45;;;0.57;;
31128;SDS011;17777;48.770;8.944;2023-07-13T15:48:53;0.90;;;0.50;;
31128;SDS011;17777;48.770;8.944;2023-07-13T15:51:23;1.17;;;0.55;;
31128;SDS011;17777;48.770;8.944;2023-07-13T15:53:59;0.88;;;0.30;;
31128;SDS011;17777;48.770;8.944;2023-07-13T15:56:34;3.15;;;0.50;;
31128;SDS011;17777;48.770;8.944;2023-07-13T15:59:02;1.98;;;0.70;;
31128;SDS011;17777;48.770;8.944;2023-07-13T16:01:28;0.52;;;0.40;;
31128;SDS011;17777;48.770;8.944;2023-07-13T16:03:55;0.82;;;0.50;;